Time;durP1;ratioP1;P1;durP2;ratioP2;P2;SDS_P1;SDS_P2;PMS_P1;PMS_P2;Temp;Humidity;BMP_temperature;BMP_pressure;BME280_temperature;BME280_humidity;BME280_pressure;Samples;Min_cycle;Max_cycle;Signal;HPM_P1;HPM_P2
2023/11/29 00:01:54;;;;;;;19.20;10.05;;;;;;;3.57;100.00;100359.53;5039384;28;20024;-81
2023/11/29 00:04:22;;;;;;;14.90;8.82;;;;;;;3.60;100.00;100359.25;5039093;28;20033;-81
2023/11/29 00:06:48;;;;;;;16.80;9.40;;;;;;;3.59;100.00;100355.75;5039618;28;20383;-81
2023/11/29 00:09:14;;;;;;;19.73;9.82;;;;;;;3.58;100.00;100354.09;5022756;28;20036;-81
2023/11/29 00:11:40;;;;;;;20.40;9.43;;;;;;;3.58;100.00;100342.63;5022733;28;20073;-82
2023/11/29 00:14:08;;;;;;;16.70;9.25;;;;;;;3.55;100.00;100337.56;5023608;28;20037;-81
2023/11/29 00:16:35;;;;;;;22.08;9.45;;;;;;;3.49;100.00;100337.19;5022744;28;20095;-81
2023/11/29 00:19:00;;;;;;;21.55;10.02;;;;;;;3.45;100.00;100327.78;5039294;28;20047;-82
2023/11/29 00:21:28;;;;;;;21.40;10.80;;;;;;;3.42;100.00;100335.22;5039130;28;20037;-81
2023/11/29 00:23:54;;;;;;;25.55;11.85;;;;;;;3.42;100.00;100337.88;5039469;28;20044;-82
2023/11/29 00:26:23;;;;;;;20.60;10.90;;;;;;;3.40;100.00;100331.84;5038559;28;20486;-82
2023/11/29 00:28:50;;;;;;;21.92;11.35;;;;;;;3.37;100.00;100326.81;5055058;28;20039;-81
2023/11/29 00:31:18;;;;;;;18.20;10.15;;;;;;;3.32;100.00;100321.91;5038912;28;20467;-82
2023/11/29 00:33:44;;;;;;;21.90;10.73;;;;;;;3.22;100.00;100319.25;5038785;28;20035;-82
2023/11/29 00:36:10;;;;;;;19.20;11.20;;;;;;;3.13;100.00;100316.59;5055195;28;20021;-82
2023/11/29 00:38:43;;;;;;;18.58;10.13;;;;;;;3.05;100.00;100315.47;5038363;28;20036;-82
2023/11/29 00:41:09;;;;;;;15.70;10.20;;;;;;;3.01;100.00;100308.75;5038574;28;20111;-82
2023/11/29 00:43:37;;;;;;;25.27;10.43;;;;;;;3.03;100.00;100306.81;5021591;28;20120;-82
2023/11/29 00:46:03;;;;;;;19.05;9.23;;;;;;;3.03;100.00;100308.63;5039002;28;20041;-81
2023/11/29 00:48:32;;;;;;;18.38;8.95;;;;;;;2.94;100.00;100304.97;5021755;28;20064;-81
2023/11/29 00:51:00;;;;;;;18.63;9.77;;;;;;;2.84;100.00;100306.78;5022139;28;20379;-81
2023/11/29 00:53:26;;;;;;;18.77;9.85;;;;;;;2.78;100.00;100309.97;5022045;28;20040;-82
2023/11/29 00:55:58;;;;;;;24.45;11.55;;;;;;;2.76;100.00;100306.63;5022219;28;20040;-81
2023/11/29 00:58:25;;;;;;;18.20;10.60;;;;;;;2.79;100.00;100303.69;5021846;28;20048;-82
2023/11/29 01:00:51;;;;;;;17.77;10.65;;;;;;;2.74;100.00;100295.28;5054546;28;20483;-81
2023/11/29 01:03:17;;;;;;;17.33;10.38;;;;;;;2.72;100.00;100297.25;5037882;28;20490;-81
2023/11/29 01:05:43;;;;;;;18.40;11.25;;;;;;;2.71;100.00;100290.25;5021864;28;20029;-81
2023/11/29 01:08:09;;;;;;;19.27;12.02;;;;;;;2.74;100.00;100288.16;5038198;28;20029;-82
2023/11/29 01:10:40;;;;;;;24.83;13.90;;;;;;;2.69;100.00;100284.25;5038167;28;20114;-82
2023/11/29 01:13:06;;;;;;;21.75;12.55;;;;;;;2.70;100.00;100270.00;5037963;28;20079;-81
2023/11/29 01:15:35;;;;;;;22.95;12.73;;;;;;;2.71;100.00;100279.66;5021493;28;20493;-81
2023/11/29 01:18:01;;;;;;;22.92;13.07;;;;;;;2.76;100.00;100282.72;5054387;28;20485;-81
2023/11/29 01:20:29;;;;;;;19.45;10.10;;;;;;;2.82;100.00;100274.22;5037221;28;20030;-82
2023/11/29 01:22:55;;;;;;;20.23;11.32;;;;;;;2.90;100.00;100277.00;5020929;28;20108;-82
2023/11/29 01:25:20;;;;;;;23.08;11.25;;;;;;;2.94;100.00;100275.78;5021442;28;20194;-81
2023/11/29 01:27:48;;;;;;;24.55;12.70;;;;;;;3.00;100.00;100277.03;5055395;28;20082;-81
2023/11/29 01:30:14;;;;;;;17.50;10.32;;;;;;;3.00;100.00;100277.03;5021253;28;20037;-82
2023/11/29 01:32:40;;;;;;;22.55;10.85;;;;;;;3.01;100.00;100278.69;5021175;28;20025;-81
2023/11/29 01:35:06;;;;;;;21.25;11.32;;;;;;;3.00;100.00;100277.88;5021288;28;20044;-81
2023/11/29 01:37:33;;;;;;;21.20;10.02;;;;;;;2.97;100.00;100277.31;5021386;28;20132;-81
2023/11/29 01:40:02;;;;;;;20.20;10.85;;;;;;;2.94;100.00;100270.47;5037808;28;20051;-81
2023/11/29 01:42:28;;;;;;;20.95;11.80;;;;;;;2.98;100.00;100268.34;5021245;28;20040;-82
2023/11/29 01:44:54;;;;;;;21.55;10.93;;;;;;;2.93;100.00;100265.28;5037277;28;20056;-82
2023/11/29 01:47:20;;;;;;;17.35;9.80;;;;;;;2.97;100.00;100267.53;5054305;28;20464;-82
2023/11/29 01:49:46;;;;;;;16.33;10.63;;;;;;;2.98;100.00;100263.88;5020974;28;20063;-81
2023/11/29 01:52:15;;;;;;;22.15;9.88;;;;;;;3.00;100.00;100261.94;5020866;28;20043;-82
2023/11/29 01:54:41;;;;;;;20.38;11.30;;;;;;;3.05;100.00;100257.03;5037235;28;20035;-82
2023/11/29 01:57:07;;;;;;;17.30;9.65;;;;;;;3.03;100.00;100259.00;5020790;28;20475;-81
2023/11/29 01:59:34;;;;;;;19.35;9.70;;;;;;;3.02;100.00;100253.84;5020531;28;20102;-82
2023/11/29 02:02:00;;;;;;;24.45;11.02;;;;;;;3.00;100.00;100251.31;5053534;28;20029;-81
2023/11/29 02:04:30;;;;;;;22.42;10.27;;;;;;;2.96;100.00;100246.41;5037052;28;20522;-81
2023/11/29 02:06:58;;;;;;;19.67;11.07;;;;;;;3.00;100.00;100248.66;5020743;28;20080;-82
2023/11/29 02:09:29;;;;;;;30.88;15.45;;;;;;;2.99;100.00;100243.47;5035924;28;20040;-81
2023/11/29 02:11:58;;;;;;;36.75;17.33;;;;;;;3.00;100.00;100245.16;5021142;28;20037;-82
2023/11/29 02:14:23;;;;;;;23.92;11.70;;;;;;;2.98;100.00;100234.66;5020470;28;20040;-81
2023/11/29 02:16:49;;;;;;;26.40;12.00;;;;;;;2.96;100.00;100236.63;5020551;28;20059;-81
2023/11/29 02:19:15;;;;;;;24.50;10.65;;;;;;;2.97;100.00;100233.00;5053063;28;20029;-81
2023/11/29 02:21:46;;;;;;;25.77;11.32;;;;;;;2.95;100.00;100229.63;5053026;28;20039;-81
2023/11/29 02:24:17;;;;;;;23.75;10.25;;;;;;;2.94;100.00;100230.63;5036732;28;20489;-81
2023/11/29 02:26:43;;;;;;;18.23;9.40;;;;;;;2.97;100.00;100237.47;5020799;28;20044;-82
2023/11/29 02:29:10;;;;;;;15.90;9.27;;;;;;;2.99;100.00;100232.84;5020162;28;20029;-81
2023/11/29 02:31:36;;;;;;;19.48;9.50;;;;;;;2.98;100.00;100229.34;5052825;28;20467;-82
2023/11/29 02:34:03;;;;;;;21.27;10.07;;;;;;;3.01;100.00;100226.41;5036712;28;20033;-81
2023/11/29 02:36:30;;;;;;;21.10;9.50;;;;;;;3.02;100.00;100235.25;5020426;28;20059;-81
2023/11/29 02:38:55;;;;;;;18.20;9.20;;;;;;;3.04;100.00;100228.81;5020137;28;20040;-81
2023/11/29 02:41:21;;;;;;;17.67;9.45;;;;;;;3.09;100.00;100223.06;5035887;28;20029;-81
2023/11/29 02:43:51;;;;;;;17.63;9.60;;;;;;;3.09;100.00;100210.59;5036457;28;20033;-81
2023/11/29 02:46:17;;;;;;;19.33;9.60;;;;;;;3.12;100.00;100206.84;5020687;28;20041;-81
2023/11/29 02:48:43;;;;;;;14.68;8.65;;;;;;;3.13;100.00;100213.84;5036081;28;20506;-82
2023/11/29 02:51:08;;;;;;;18.60;9.23;;;;;;;3.15;100.00;100211.03;5019996;28;20043;-81
2023/11/29 02:53:37;;;;;;;16.55;9.05;;;;;;;3.12;100.00;100201.53;5019768;28;20032;-82
2023/11/29 02:56:05;;;;;;;18.75;8.38;;;;;;;3.15;100.00;100209.22;5020096;28;20487;-81
2023/11/29 02:58:30;;;;;;;20.55;8.70;;;;;;;3.16;100.00;100210.06;5020033;28;20087;-81
2023/11/29 03:00:56;;;;;;;18.73;8.95;;;;;;;3.14;100.00;100199.56;5019778;28;20481;-82
2023/11/29 03:03:24;;;;;;;12.25;7.82;;;;;;;3.13;100.00;100197.91;5019421;28;20036;-82
2023/11/29 03:05:50;;;;;;;21.10;9.02;;;;;;;3.12;100.00;100198.03;5036175;28;20131;-81
2023/11/29 03:08:18;;;;;;;19.85;8.65;;;;;;;3.12;100.00;100196.22;5052489;28;20516;-81
2023/11/29 03:10:44;;;;;;;17.92;9.35;;;;;;;3.14;100.00;100193.41;5052210;28;20052;-81
2023/11/29 03:13:10;;;;;;;20.20;8.52;;;;;;;3.11;100.00;100189.22;5019482;28;20040;-81
2023/11/29 03:15:35;;;;;;;15.77;7.63;;;;;;;3.13;100.00;100191.75;5036020;28;20029;-82
2023/11/29 03:18:11;;;;;;;17.67;8.00;;;;;;;3.17;100.00;100190.47;5021510;28;20090;-81
2023/11/29 03:20:37;;;;;;;12.60;8.05;;;;;;;3.16;100.00;100196.78;5035474;28;20101;-81
2023/11/29 03:23:02;;;;;;;15.73;8.23;;;;;;;3.17;100.00;100195.78;5035699;28;20119;-82
2023/11/29 03:25:28;;;;;;;12.43;7.45;;;;;;;3.14;100.00;100190.75;5019060;28;20044;-81
2023/11/29 03:27:54;;;;;;;21.35;8.32;;;;;;;3.08;100.00;100185.03;5035617;28;20468;-81
2023/11/29 03:30:20;;;;;;;13.02;7.32;;;;;;;3.07;100.00;100182.53;5019086;28;20067;-82
2023/11/29 03:32:45;;;;;;;10.40;6.88;;;;;;;3.09;100.00;100180.56;5019404;28;20033;-81
2023/11/29 03:35:11;;;;;;;13.40;7.75;;;;;;;3.10;100.00;100168.97;5019466;28;20479;-81
2023/11/29 03:37:39;;;;;;;16.25;7.60;;;;;;;3.09;100.00;100172.59;5019186;28;20076;-81
2023/11/29 03:40:08;;;;;;;13.20;7.60;;;;;;;3.07;100.00;100172.75;5019600;28;20124;-81
2023/11/29 03:42:34;;;;;;;14.07;7.95;;;;;;;3.05;100.00;100169.38;5035676;28;20033;-82
2023/11/29 03:45:06;;;;;;;20.15;8.60;;;;;;;3.00;100.00;100165.50;5035752;28;20025;-82
2023/11/29 03:47:32;;;;;;;14.50;7.97;;;;;;;2.88;100.00;100162.13;5051808;28;20029;-82
2023/11/29 03:49:57;;;;;;;14.52;8.30;;;;;;;2.79;100.00;100157.66;5019220;28;20033;-81
2023/11/29 03:52:26;;;;;;;15.60;7.65;;;;;;;2.61;100.00;100161.00;5034988;28;20035;-81
2023/11/29 03:54:55;;;;;;;13.75;7.85;;;;;;;2.48;100.00;100149.84;5018942;28;20124;-81
2023/11/29 03:57:23;;;;;;;18.55;7.78;;;;;;;2.38;100.00;100144.53;5035500;28;20036;-81
2023/11/29 03:59:49;;;;;;;11.15;7.47;;;;;;;2.34;100.00;100140.47;5018857;28;20450;-82
2023/11/29 04:02:18;;;;;;;15.27;8.10;;;;;;;2.30;100.00;100147.03;5035086;28;20120;-81
2023/11/29 04:04:49;;;;;;;16.17;7.97;;;;;;;2.43;100.00;100141.44;5051689;28;20032;-81
2023/11/29 04:07:14;;;;;;;16.10;8.45;;;;;;;2.49;100.00;100134.75;5019254;28;20036;-82
2023/11/29 04:09:42;;;;;;;18.75;8.55;;;;;;;2.49;100.00;100124.13;5019099;28;20364;-81
2023/11/29 04:12:09;;;;;;;17.05;7.82;;;;;;;2.46;100.00;100125.28;5035732;28;20475;-82
2023/11/29 04:14:35;;;;;;;17.95;8.32;;;;;;;2.41;100.00;100116.88;5019001;28;20481;-82
2023/11/29 04:17:00;;;;;;;21.02;8.45;;;;;;;2.35;100.00;100112.94;5018974;28;20045;-82
2023/11/29 04:19:29;;;;;;;20.25;9.23;;;;;;;2.31;100.00;100121.34;5035409;28;20039;-81
2023/11/29 04:21:56;;;;;;;19.10;9.15;;;;;;;2.26;100.00;100107.66;5018752;28;20124;-82
2023/11/29 04:24:22;;;;;;;22.80;10.35;;;;;;;2.23;100.00;100108.78;5035268;28;20040;-81
2023/11/29 04:26:50;;;;;;;25.20;10.13;;;;;;;2.22;100.00;100107.06;5018879;28;20116;-81
2023/11/29 04:29:19;;;;;;;18.95;8.85;;;;;;;2.19;100.00;100102.88;5018864;28;20076;-82
2023/11/29 04:31:45;;;;;;;18.75;8.50;;;;;;;2.22;100.00;100111.53;5019566;28;20041;-82
2023/11/29 04:34:10;;;;;;;19.30;8.35;;;;;;;2.23;100.00;100103.47;5022387;28;20037;-82
2023/11/29 04:36:40;;;;;;;17.80;8.20;;;;;;;2.29;100.00;100102.06;5038551;28;20025;-81
2023/11/29 04:39:13;;;;;;;21.60;10.13;;;;;;;2.29;100.00;100102.91;5022850;28;20029;-81
2023/11/29 04:41:43;;;;;;;23.95;9.80;;;;;;;2.33;100.00;100092.84;5039932;28;20025;-81
2023/11/29 04:44:09;;;;;;;24.58;9.38;;;;;;;2.38;100.00;100093.25;5022240;28;20472;-81
2023/11/29 04:46:41;;;;;;;19.65;9.07;;;;;;;2.40;100.00;100093.97;5055173;28;20032;-81
2023/11/29 04:49:09;;;;;;;20.17;8.85;;;;;;;2.35;100.00;100101.50;5038619;28;20033;-82
2023/11/29 04:51:35;;;;;;;17.27;8.20;;;;;;;2.30;100.00;100090.47;5022064;28;20570;-82
2023/11/29 04:54:00;;;;;;;23.45;9.40;;;;;;;2.24;100.00;100097.16;5038355;28;20104;-82
2023/11/29 04:56:26;;;;;;;18.60;9.25;;;;;;;2.19;100.00;100088.78;5038344;28;20399;-82
2023/11/29 04:58:52;;;;;;;16.73;8.80;;;;;;;2.17;100.00;100082.78;5021949;28;20044;-81
2023/11/29 05:01:17;;;;;;;23.50;9.90;;;;;;;2.20;100.00;100080.72;5021909;28;20380;-81
2023/11/29 05:03:43;;;;;;;20.05;8.95;;;;;;;2.26;100.00;100075.81;5053883;28;20083;-82
2023/11/29 05:06:12;;;;;;;20.95;10.00;;;;;;;2.29;100.00;100075.53;5021359;28;20141;-82
2023/11/29 05:08:40;;;;;;;28.30;11.25;;;;;;;2.34;100.00;100073.31;5037805;28;20033;-82
2023/11/29 05:11:09;;;;;;;28.33;10.88;;;;;;;2.39;100.00;100071.91;5021961;28;20127;-81
2023/11/29 05:13:35;;;;;;;20.35;9.75;;;;;;;2.34;100.00;100068.00;5054619;28;20032;-81
2023/11/29 05:16:00;;;;;;;21.70;9.30;;;;;;;2.26;100.00;100070.53;5037606;28;20029;-81
2023/11/29 05:18:26;;;;;;;19.65;8.93;;;;;;;2.20;100.00;100071.91;5054099;28;20029;-82
2023/11/29 05:20:53;;;;;;;19.08;9.13;;;;;;;2.14;100.00;100073.31;5021500;28;20063;-81
2023/11/29 05:23:21;;;;;;;18.52;8.38;;;;;;;2.15;100.00;100068.84;5037680;28;20107;-82
2023/11/29 05:25:46;;;;;;;22.52;9.30;;;;;;;2.13;100.00;100068.13;5037952;28;20463;-81
2023/11/29 05:28:12;;;;;;;19.58;8.07;;;;;;;2.16;100.00;100076.63;5054694;28;20033;-81
2023/11/29 05:30:38;;;;;;;13.23;7.75;;;;;;;2.15;100.00;100077.63;5037621;28;20460;-81
2023/11/29 05:33:07;;;;;;;22.23;8.07;;;;;;;2.12;100.00;100075.25;5037680;28;20420;-81
2023/11/29 05:35:32;;;;;;;22.23;8.38;;;;;;;2.15;100.00;100085.59;5021232;28;20390;-81
2023/11/29 05:38:01;;;;;;;16.08;8.48;;;;;;;2.24;100.00;100086.56;5021242;28;20128;-81
2023/11/29 05:40:27;;;;;;;20.45;8.02;;;;;;;2.35;100.00;100074.97;5037712;28;20065;-81
2023/11/29 05:42:53;;;;;;;17.58;8.48;;;;;;;2.40;100.00;100073.56;5036715;28;20451;-81
2023/11/29 05:45:21;;;;;;;20.10;8.30;;;;;;;2.40;100.00;100072.75;5036795;28;20043;-81
2023/11/29 05:47:47;;;;;;;20.38;7.80;;;;;;;2.42;100.00;100068.13;5054844;28;20025;-81
2023/11/29 05:50:13;;;;;;;12.27;7.50;;;;;;;2.47;100.00;100076.53;5020918;28;20134;-81
2023/11/29 05:52:41;;;;;;;17.90;8.63;;;;;;;2.51;100.00;100074.41;5037375;28;20069;-82
2023/11/29 05:55:09;;;;;;;14.90;7.13;;;;;;;2.59;100.00;100069.22;5037265;28;20041;-82
2023/11/29 05:57:44;;;;;;;16.92;8.52;;;;;;;2.66;100.00;100069.53;5020932;28;20553;-82
2023/11/29 06:00:14;;;;;;;24.08;9.57;;;;;;;2.74;100.00;100067.81;5021468;28;20059;-82
2023/11/29 06:02:41;;;;;;;14.23;7.60;;;;;;;2.80;100.00;100069.06;5037188;28;20040;-81
2023/11/29 06:05:07;;;;;;;19.85;9.25;;;;;;;2.76;100.00;100068.53;5036999;28;20057;-81
2023/11/29 06:07:36;;;;;;;18.15;7.93;;;;;;;2.75;100.00;100066.88;5053304;28;20045;-82
2023/11/29 06:10:06;;;;;;;19.95;7.65;;;;;;;2.71;100.00;100065.47;5036828;28;20031;-81
2023/11/29 06:12:36;;;;;;;20.75;7.13;;;;;;;2.68;100.00;100064.91;5020883;28;20514;-81
2023/11/29 06:15:08;;;;;;;17.48;7.15;;;;;;;2.66;100.00;100053.59;5022061;28;20047;-81
2023/11/29 06:17:36;;;;;;;19.50;7.68;;;;;;;2.66;100.00;100050.94;5037208;28;20094;-81
2023/11/29 06:20:04;;;;;;;18.08;8.32;;;;;;;2.65;100.00;100055.41;5020443;28;20083;-81
2023/11/29 06:22:32;;;;;;;20.33;8.65;;;;;;;2.59;100.00;100048.88;5052948;28;20124;-81
2023/11/29 06:24:59;;;;;;;21.17;8.23;;;;;;;2.58;100.00;100041.88;5036807;28;20025;-81
2023/11/29 06:27:28;;;;;;;13.43;7.57;;;;;;;2.60;100.00;100036.44;5036526;28;20029;-82
2023/11/29 06:29:54;;;;;;;15.95;7.90;;;;;;;2.60;100.00;100042.56;5053254;28;20445;-81
2023/11/29 06:32:24;;;;;;;21.08;8.02;;;;;;;2.60;100.00;100041.72;5020246;28;20086;-81
2023/11/29 06:34:55;;;;;;;28.00;9.60;;;;;;;2.60;100.00;100039.09;5020714;28;20128;-82
2023/11/29 06:37:24;;;;;;;20.63;7.75;;;;;;;2.58;100.00;100039.22;5053010;28;20025;-81
2023/11/29 06:39:50;;;;;;;24.15;9.93;;;;;;;2.57;100.00;100039.38;5036489;28;20033;-81
2023/11/29 06:42:16;;;;;;;26.40;9.88;;;;;;;2.56;100.00;100037.69;5003545;28;20035;-81
2023/11/29 06:44:44;;;;;;;28.40;10.18;;;;;;;2.55;100.00;100041.31;5035822;28;20029;-81
2023/11/29 06:47:10;;;;;;;31.92;10.75;;;;;;;2.60;100.00;100034.59;5036690;28;20036;-81
2023/11/29 06:49:39;;;;;;;28.77;12.23;;;;;;;2.70;100.00;100033.72;5052507;28;20025;-82
2023/11/29 06:52:04;;;;;;;27.67;12.50;;;;;;;2.83;100.00;100027.16;5019724;28;20075;-81
2023/11/29 06:54:30;;;;;;;36.92;13.18;;;;;;;2.95;100.00;100025.16;5035602;28;20064;-81
2023/11/29 06:56:56;;;;;;;39.25;15.32;;;;;;;3.00;100.00;100014.94;5019654;28;20036;-81
2023/11/29 06:59:24;;;;;;;43.83;15.20;;;;;;;3.11;100.00;100018.41;5019976;28;20127;-81
2023/11/29 07:01:50;;;;;;;58.60;22.08;;;;;;;3.16;100.00;100016.13;5035731;28;20083;-82
2023/11/29 07:04:16;;;;;;;49.75;16.55;;;;;;;3.22;100.00;100020.84;5068699;28;20193;-82
2023/11/29 07:06:42;;;;;;;62.25;20.85;;;;;;;3.25;100.00;100026.69;5036335;28;20044;-81
2023/11/29 07:09:13;;;;;;;68.97;21.77;;;;;;;3.33;100.00;100033.94;5036064;28;20386;-81
2023/11/29 07:11:39;;;;;;;70.28;21.15;;;;;;;3.39;100.00;100021.91;5036930;28;20028;-81
2023/11/29 07:14:05;;;;;;;56.05;18.95;;;;;;;3.45;100.00;100024.81;5036186;28;20029;-81
2023/11/29 07:16:33;;;;;;;56.25;19.23;;;;;;;3.44;100.00;100022.28;5052321;28;20040;-82
2023/11/29 07:18:59;;;;;;;51.67;17.48;;;;;;;3.49;100.00;100028.84;5019178;28;20040;-82
2023/11/29 07:21:25;;;;;;;57.40;18.65;;;;;;;3.55;100.00;100039.84;5035755;28;20032;-82
2023/11/29 07:23:50;;;;;;;44.20;16.13;;;;;;;3.57;100.00;100037.88;5018588;28;20044;-82
2023/11/29 07:26:16;;;;;;;45.05;16.30;;;;;;;3.58;100.00;100031.59;5018246;28;20032;-82
2023/11/29 07:28:47;;;;;;;62.15;19.65;;;;;;;3.60;100.00;100040.25;5019381;28;20033;-81
2023/11/29 07:31:16;;;;;;;57.78;19.50;;;;;;;3.59;100.00;100027.94;5019218;28;20080;-81
2023/11/29 07:33:43;;;;;;;56.20;19.38;;;;;;;3.58;100.00;100027.13;5019433;28;20476;-81
2023/11/29 07:36:12;;;;;;;45.97;16.25;;;;;;;3.59;100.00;100027.94;5052242;28;20032;-81
2023/11/29 07:38:42;;;;;;;55.15;18.65;;;;;;;3.58;100.00;100029.78;5019521;28;20205;-82
2023/11/29 07:41:09;;;;;;;46.63;16.35;;;;;;;3.57;100.00;100021.94;5034733;28;20033;-81
2023/11/29 07:43:35;;;;;;;75.80;23.88;;;;;;;3.52;100.00;100022.41;5034373;28;20066;-81
2023/11/29 07:46:03;;;;;;;57.80;19.17;;;;;;;3.45;100.00;100018.66;5034487;28;20025;-81
2023/11/29 07:48:32;;;;;;;73.60;23.10;;;;;;;3.44;100.00;100020.50;5052376;28;20514;-81
2023/11/29 07:50:59;;;;;;;58.47;20.88;;;;;;;3.47;100.00;100027.31;5035583;28;20029;-81
2023/11/29 07:53:25;;;;;;;88.82;26.77;;;;;;;3.46;100.00;100023.81;5018851;28;20029;-81
2023/11/29 07:55:51;;;;;;;71.00;19.92;;;;;;;3.43;100.00;100025.94;5069021;28;20037;-81
2023/11/29 07:58:16;;;;;;;70.80;19.50;;;;;;;3.34;100.00;100022.34;5035657;28;20044;-81
2023/11/29 08:00:43;;;;;;;60.28;18.58;;;;;;;3.29;100.00;100016.63;5018790;28;20132;-81
2023/11/29 08:03:09;;;;;;;63.35;18.40;;;;;;;3.27;100.00;100023.91;5035221;28;20060;-81
2023/11/29 08:05:38;;;;;;;57.78;18.05;;;;;;;3.23;100.00;100023.38;5018706;28;20056;-81
2023/11/29 08:08:04;;;;;;;77.20;21.05;;;;;;;3.19;100.00;100022.00;5054328;28;20044;-81
2023/11/29 08:10:34;;;;;;;64.47;21.20;;;;;;;3.18;100.00;100020.31;5022682;28;20102;-81
2023/11/29 08:13:03;;;;;;;88.70;27.42;;;;;;;3.21;100.00;100014.72;5022494;28;20025;-82
2023/11/29 08:15:28;;;;;;;59.55;17.70;;;;;;;3.25;100.00;100012.59;5023080;28;20104;-81
2023/11/29 08:17:54;;;;;;;64.03;18.75;;;;;;;3.30;100.00;100013.00;5022749;28;20056;-81
2023/11/29 08:20:21;;;;;;;74.25;24.10;;;;;;;3.38;100.00;100012.25;5038447;28;20446;-82
2023/11/29 08:22:46;;;;;;;63.90;18.95;;;;;;;3.49;100.00;100020.03;5038815;28;20037;-82
2023/11/29 08:25:13;;;;;;;82.22;23.10;;;;;;;3.55;100.00;100010.63;5022600;28;20132;-81
2023/11/29 08:27:41;;;;;;;61.38;20.38;;;;;;;3.61;100.00;100012.69;5039085;28;20143;-81
2023/11/29 08:30:10;;;;;;;60.15;19.27;;;;;;;3.68;100.00;100011.94;5038835;28;20102;-81
2023/11/29 08:32:36;;;;;;;73.90;20.33;;;;;;;3.77;100.00;100017.34;5022213;28;20061;-81
2023/11/29 08:35:04;;;;;;;92.03;28.88;;;;;;;3.86;100.00;100016.44;5021081;28;20126;-81
2023/11/29 08:37:31;;;;;;;99.80;30.10;;;;;;;3.89;100.00;100014.34;5022397;28;20049;-81
2023/11/29 08:39:59;;;;;;;93.72;28.58;;;;;;;3.94;100.00;100009.41;5022150;28;20136;-83
2023/11/29 08:42:25;;;;;;;79.80;25.58;;;;;;;3.99;100.00;100005.44;5038764;28;20049;-80
2023/11/29 08:44:51;;;;;;;106.65;31.10;;;;;;;4.01;100.00;100003.47;5054864;28;20396;-81
2023/11/29 08:47:16;;;;;;;73.57;19.83;;;;;;;4.02;100.00;100011.28;5021774;28;20033;-85
2023/11/29 08:49:45;;;;;;;74.30;21.40;;;;;;;4.04;100.00;100008.47;5022381;28;20037;-85
2023/11/29 08:52:11;;;;;;;69.38;20.40;;;;;;;4.07;100.00;100009.00;5038940;28;20533;-84
2023/11/29 08:54:37;;;;;;;70.53;21.40;;;;;;;4.09;100.00;100008.84;5054696;28;20029;-85
2023/11/29 08:57:03;;;;;;;68.72;20.98;;;;;;;4.08;100.00;100008.03;5038309;28;20040;-86
2023/11/29 08:59:29;;;;;;;87.13;27.42;;;;;;;4.10;100.00;100003.41;5021840;28;20033;-85
2023/11/29 09:01:54;;;;;;;66.13;24.38;;;;;;;4.12;100.00;100004.06;5021488;28;20037;-85
2023/11/29 09:04:20;;;;;;;56.70;18.50;;;;;;;4.13;100.00;99997.75;5055476;28;20056;-87
2023/11/29 09:06:49;;;;;;;63.13;18.15;;;;;;;4.21;100.00;99996.13;5038300;28;20029;-82
2023/11/29 09:09:14;;;;;;;67.13;21.00;;;;;;;4.21;100.00;100004.13;5054872;28;20064;-82
2023/11/29 09:11:55;;;;;;;;;;;;;;;;;;;;;
2023/11/29 09:14:21;;;;;;;60.17;20.95;;;;;;;4.37;100.00;100006.94;5054521;28;20029;-83
2023/11/29 09:16:46;;;;;;;64.88;19.35;;;;;;;4.44;100.00;99999.16;5021717;28;20369;-82
2023/11/29 09:19:12;;;;;;;60.58;18.15;;;;;;;4.50;100.00;99998.53;5020964;28;20491;-83
2023/11/29 09:21:48;;;;;;;49.50;15.05;;;;;;;4.58;100.00;100006.59;5037942;28;20493;-83
2023/11/29 09:24:37;;;;;;;43.85;15.43;;;;;;;4.56;100.00;99988.13;5021028;28;20395;-83
2023/11/29 09:27:18;;;;;;;42.53;14.07;;;;;;;4.75;100.00;100005.72;5053742;28;20059;-83
2023/11/29 09:29:46;;;;;;;;;;;;;;;4.83;100.00;100011.09;5021665;28;20043;-84
2023/11/29 09:32:12;;;;;;;48.63;15.27;;;;;;;4.82;100.00;100004.09;5071038;28;19999;-83
2023/11/29 09:34:37;;;;;;;40.20;13.95;;;;;;;4.83;100.00;100003.09;5037665;28;20553;-83
2023/11/29 09:37:06;;;;;;;32.45;12.20;;;;;;;4.85;100.00;100011.78;5021245;28;20037;-81
2023/11/29 09:39:33;;;;;;;48.42;17.08;;;;;;;4.88;100.00;99999.97;5021019;28;20466;-82
2023/11/29 09:42:02;;;;;;;40.60;14.75;;;;;;;4.83;100.00;99989.78;5020878;28;20123;-82
2023/11/29 09:44:36;;;;;;;34.67;12.23;;;;;;;4.87;100.00;99997.44;5021473;28;20037;-82
2023/11/29 09:47:02;;;;;;;38.38;15.07;;;;;;;4.82;100.00;100003.28;5038744;28;20040;-83
2023/11/29 09:49:28;;;;;;;39.13;14.52;;;;;;;4.76;100.00;99996.75;5021606;28;20069;-82
2023/11/29 09:51:54;;;;;;;33.00;13.65;;;;;;;4.69;100.00;99989.53;5021664;28;20071;-83
2023/11/29 09:54:20;;;;;;;32.90;13.70;;;;;;;4.67;100.00;99992.34;5047455;28;20044;-82
2023/11/29 09:56:49;;;;;;;53.65;24.63;;;;;;;4.69;100.00;99989.53;5046358;28;20041;-83
2023/11/29 09:59:23;;;;;;;35.30;14.93;;;;;;;4.67;100.00;99991.50;5038079;28;20056;-82
2023/11/29 10:01:50;;;;;;;29.60;12.75;;;;;;;4.72;100.00;99995.38;5053282;28;20027;-82
2023/11/29 10:04:15;;;;;;;35.35;14.75;;;;;;;4.75;100.00;99983.56;5020566;28;20033;-83
2023/11/29 10:06:44;;;;;;;34.75;13.77;;;;;;;4.79;100.00;99988.44;5020839;28;20087;-82
2023/11/29 10:09:13;;;;;;;22.40;11.30;;;;;;;4.83;100.00;99979.13;5037040;28;20029;-82
2023/11/29 10:11:45;;;;;;;31.20;13.10;;;;;;;4.86;100.00;99980.63;5020956;28;20080;-83
2023/11/29 10:14:11;;;;;;;32.42;13.73;;;;;;;4.95;100.00;99974.38;5037544;28;20044;-83
2023/11/29 10:16:36;;;;;;;24.85;10.80;;;;;;;4.98;100.00;99975.88;5036205;28;20365;-81
2023/11/29 10:19:04;;;;;;;24.60;11.70;;;;;;;4.99;100.00;99972.22;5036402;28;20025;-82
2023/11/29 10:21:30;;;;;;;28.15;13.02;;;;;;;5.01;100.00;99965.75;5019400;28;20136;-82
2023/11/29 10:23:55;;;;;;;29.88;13.02;;;;;;;4.99;100.00;99973.03;5052301;28;20124;-82
2023/11/29 10:26:25;;;;;;;29.13;15.50;;;;;;;4.98;100.00;99970.56;5036335;28;20036;-82
2023/11/29 10:28:54;;;;;;;20.90;11.20;;;;;;;4.96;100.00;99965.38;5036313;28;20458;-81
2023/11/29 10:31:21;;;;;;;19.60;10.95;;;;;;;5.01;100.00;99968.41;5019234;28;20037;-81
2023/11/29 10:33:47;;;;;;;18.52;11.80;;;;;;;5.01;100.00;99975.56;5019841;28;20040;-82
2023/11/29 10:36:13;;;;;;;18.90;9.63;;;;;;;5.02;100.00;99969.22;5019307;28;20067;-81
2023/11/29 10:39:04;;;;;;;13.50;8.43;;;;;;;5.07;100.00;99962.44;5019998;28;20090;-82
2023/11/29 10:41:34;;;;;;;12.57;8.52;;;;;;;5.12;100.00;99963.78;5020056;28;20090;-83
2023/11/29 10:44:01;;;;;;;17.73;11.63;;;;;;;5.22;100.00;99965.34;5019764;28;20033;-82
2023/11/29 10:46:31;;;;;;;14.55;11.10;;;;;;;5.22;100.00;99962.66;5019671;28;20048;-82
2023/11/29 10:49:29;;;;;;;16.67;10.55;;;;;;;5.29;100.00;99955.69;5019712;28;20032;-82
2023/11/29 10:51:55;;;;;;;16.52;8.98;;;;;;;5.46;100.00;99945.09;5035814;28;20430;-81
2023/11/29 10:54:25;;;;;;;11.32;6.75;;;;;;;5.55;100.00;99949.44;5035971;28;20430;-82
2023/11/29 10:56:51;;;;;;;16.58;8.65;;;;;;;5.67;100.00;99948.13;5034973;28;20146;-82
2023/11/29 10:59:24;;;;;;;13.35;7.60;;;;;;;5.79;100.00;99945.13;5018142;28;20047;-82
2023/11/29 11:01:55;;;;;;;14.35;7.20;;;;;;;5.86;100.00;99943.50;5018090;28;20032;-82
2023/11/29 11:04:21;;;;;;;14.95;7.85;;;;;;;5.92;100.00;99948.97;5019334;28;20488;-82
2023/11/29 11:06:46;;;;;;;10.48;6.53;;;;;;;6.04;100.00;99951.38;5019404;28;20043;-82
2023/11/29 11:09:40;;;;;;;12.38;8.27;;;;;;;6.06;100.00;99944.88;5035524;28;20041;-82
2023/11/29 11:12:07;;;;;;;13.65;7.80;;;;;;;6.10;100.00;99948.03;5019943;28;20045;-82
2023/11/29 11:14:41;;;;;;;11.55;6.60;;;;;;;6.01;100.00;99941.88;5035802;28;20128;-81
2023/11/29 11:17:18;;;;;;;11.63;7.43;;;;;;;6.03;100.00;99947.84;5033745;28;20029;-81
2023/11/29 11:19:47;;;;;;;8.35;5.95;;;;;;;6.08;100.00;99942.03;5020115;28;20041;-81